sensor_id;sensor_type;location;lat;lon;timestamp;P1;durP1;ratioP1;P2;durP2;ratioP2
27618;SDS011;15039;50.830;4.730;2023-05-31T00:01:23;4.05;;;3.60;;
27618;SDS011;15039;50.830;4.730;2023-05-31T00:03:49;5.82;;;4.00;;
27618;SDS011;15039;50.830;4.730;2023-05-31T00:06:15;4.90;;;3.53;;
27618;SDS011;15039;50.830;4.730;2023-05-31T00:08:40;4.03;;;3.63;;
27618;SDS011;15039;50.830;4.730;2023-05-31T00:11:07;4.00;;;3.38;;
27618;SDS011;15039;50.830;4.730;2023-05-31T00:13:33;4.47;;;4.03;;
27618;SDS011;15039;50.830;4.730;2023-05-31T00:15:58;4.43;;;3.83;;
27618;SDS011;15039;50.830;4.730;2023-05-31T00:18:24;4.20;;;3.80;;
27618;SDS011;15039;50.830;4.730;2023-05-31T00:20:50;6.75;;;4.20;;
27618;SDS011;15039;50.830;4.730;2023-05-31T00:23:15;4.38;;;3.75;;
27618;SDS011;15039;50.830;4.730;2023-05-31T00:25:41;4.28;;;3.88;;
27618;SDS011;15039;50.830;4.730;2023-05-31T00:28:06;5.18;;;4.00;;
27618;SDS011;15039;50.830;4.730;2023-05-31T00:30:32;5.03;;;4.10;;
27618;SDS011;15039;50.830;4.730;2023-05-31T00:32:58;5.53;;;4.22;;
27618;SDS011;15039;50.830;4.730;2023-05-31T00:35:23;5.32;;;4.32;;
27618;SDS011;15039;50.830;4.730;2023-05-31T00:37:49;5.63;;;4.32;;
27618;SDS011;15039;50.830;4.730;2023-05-31T00:40:14;7.65;;;4.22;;
27618;SDS011;15039;50.830;4.730;2023-05-31T00:42:40;4.97;;;4.00;;
27618;SDS011;15039;50.830;4.730;2023-05-31T00:45:06;5.00;;;4.50;;
27618;SDS011;15039;50.830;4.730;2023-05-31T00:47:32;7.30;;;4.50;;
27618;SDS011;15039;50.830;4.730;2023-05-31T00:49:59;5.78;;;4.32;;
27618;SDS011;15039;50.830;4.730;2023-05-31T00:52:26;4.63;;;4.22;;
27618;SDS011;15039;50.830;4.730;2023-05-31T00:54:53;5.28;;;4.72;;
27618;SDS011;15039;50.830;4.730;2023-05-31T00:57:19;4.47;;;4.00;;
27618;SDS011;15039;50.830;4.730;2023-05-31T00:59:45;5.00;;;4.45;;
27618;SDS011;15039;50.830;4.730;2023-05-31T01:02:11;5.32;;;4.82;;
27618;SDS011;15039;50.830;4.730;2023-05-31T01:04:37;6.88;;;4.78;;
27618;SDS011;15039;50.830;4.730;2023-05-31T01:07:04;6.63;;;4.40;;
27618;SDS011;15039;50.830;4.730;2023-05-31T01:09:30;5.97;;;4.57;;
27618;SDS011;15039;50.830;4.730;2023-05-31T01:17:39;5.10;;;4.68;;
27618;SDS011;15039;50.830;4.730;2023-05-31T01:20:32;5.70;;;5.10;;
27618;SDS011;15039;50.830;4.730;2023-05-31T01:28:26;5.97;;;4.70;;
27618;SDS011;15039;50.830;4.730;2023-05-31T01:30:58;5.38;;;4.88;;
27618;SDS011;15039;50.830;4.730;2023-05-31T01:33:27;5.72;;;5.03;;
27618;SDS011;15039;50.830;4.730;2023-05-31T01:35:53;5.68;;;4.80;;
27618;SDS011;15039;50.830;4.730;2023-05-31T01:38:18;6.50;;;5.47;;
27618;SDS011;15039;50.830;4.730;2023-05-31T01:40:44;5.35;;;4.85;;
27618;SDS011;15039;50.830;4.730;2023-05-31T01:43:10;8.57;;;5.13;;
27618;SDS011;15039;50.830;4.730;2023-05-31T01:45:37;6.18;;;5.32;;
27618;SDS011;15039;50.830;4.730;2023-05-31T01:48:04;5.20;;;4.70;;
27618;SDS011;15039;50.830;4.730;2023-05-31T01:50:33;6.00;;;5.38;;
27618;SDS011;15039;50.830;4.730;2023-05-31T01:53:00;6.88;;;5.25;;
27618;SDS011;15039;50.830;4.730;2023-05-31T01:55:25;5.18;;;4.68;;
27618;SDS011;15039;50.830;4.730;2023-05-31T01:57:51;6.75;;;5.07;;
27618;SDS011;15039;50.830;4.730;2023-05-31T02:00:19;6.40;;;5.68;;
27618;SDS011;15039;50.830;4.730;2023-05-31T02:02:46;5.82;;;5.25;;
27618;SDS011;15039;50.830;4.730;2023-05-31T02:05:12;6.93;;;5.25;;
27618;SDS011;15039;50.830;4.730;2023-05-31T02:07:41;6.25;;;5.40;;
27618;SDS011;15039;50.830;4.730;2023-05-31T02:10:09;6.22;;;5.45;;
27618;SDS011;15039;50.830;4.730;2023-05-31T02:12:35;6.55;;;5.95;;
27618;SDS011;15039;50.830;4.730;2023-05-31T02:15:01;7.13;;;5.43;;
27618;SDS011;15039;50.830;4.730;2023-05-31T02:17:28;6.85;;;5.85;;
27618;SDS011;15039;50.830;4.730;2023-05-31T02:19:58;7.32;;;5.75;;
27618;SDS011;15039;50.830;4.730;2023-05-31T02:22:24;6.55;;;5.93;;
27618;SDS011;15039;50.830;4.730;2023-05-31T02:24:50;7.05;;;5.82;;
27618;SDS011;15039;50.830;4.730;2023-05-31T02:27:17;6.47;;;5.88;;
27618;SDS011;15039;50.830;4.730;2023-05-31T02:29:44;6.18;;;5.63;;
27618;SDS011;15039;50.830;4.730;2023-05-31T02:32:11;6.20;;;5.70;;
27618;SDS011;15039;50.830;4.730;2023-05-31T02:34:36;6.63;;;5.93;;
27618;SDS011;15039;50.830;4.730;2023-05-31T02:37:02;6.47;;;5.88;;
27618;SDS011;15039;50.830;4.730;2023-05-31T02:39:28;5.85;;;5.32;;
27618;SDS011;15039;50.830;4.730;2023-05-31T02:41:54;8.60;;;6.32;;
27618;SDS011;15039;50.830;4.730;2023-05-31T02:44:20;6.93;;;6.28;;
27618;SDS011;15039;50.830;4.730;2023-05-31T02:46:46;6.88;;;6.15;;
27618;SDS011;15039;50.830;4.730;2023-05-31T02:49:11;8.55;;;6.20;;
27618;SDS011;15039;50.830;4.730;2023-05-31T02:51:37;9.63;;;6.30;;
27618;SDS011;15039;50.830;4.730;2023-05-31T02:54:03;7.03;;;6.35;;
27618;SDS011;15039;50.830;4.730;2023-05-31T02:56:28;6.95;;;6.22;;
27618;SDS011;15039;50.830;4.730;2023-05-31T02:58:54;10.43;;;6.78;;
27618;SDS011;15039;50.830;4.730;2023-05-31T03:01:21;6.90;;;6.22;;
27618;SDS011;15039;50.830;4.730;2023-05-31T03:03:48;7.47;;;6.57;;
27618;SDS011;15039;50.830;4.730;2023-05-31T03:06:13;9.20;;;6.93;;
27618;SDS011;15039;50.830;4.730;2023-05-31T03:08:41;6.55;;;5.95;;
27618;SDS011;15039;50.830;4.730;2023-05-31T03:11:07;7.65;;;6.85;;
27618;SDS011;15039;50.830;4.730;2023-05-31T03:13:33;8.32;;;6.97;;
27618;SDS011;15039;50.830;4.730;2023-05-31T03:15:58;7.57;;;6.88;;
27618;SDS011;15039;50.830;4.730;2023-05-31T03:18:25;7.20;;;6.38;;
27618;SDS011;15039;50.830;4.730;2023-05-31T03:20:51;8.00;;;6.97;;
27618;SDS011;15039;50.830;4.730;2023-05-31T03:23:16;9.23;;;6.70;;
27618;SDS011;15039;50.830;4.730;2023-05-31T03:25:42;7.90;;;7.10;;
27618;SDS011;15039;50.830;4.730;2023-05-31T03:28:08;8.18;;;7.03;;
27618;SDS011;15039;50.830;4.730;2023-05-31T03:30:33;7.20;;;6.50;;
27618;SDS011;15039;50.830;4.730;2023-05-31T03:32:59;8.55;;;6.90;;
27618;SDS011;15039;50.830;4.730;2023-05-31T03:35:25;8.50;;;7.47;;
27618;SDS011;15039;50.830;4.730;2023-05-31T03:37:51;8.07;;;6.95;;
27618;SDS011;15039;50.830;4.730;2023-05-31T03:40:18;8.23;;;7.30;;
27618;SDS011;15039;50.830;4.730;2023-05-31T03:42:43;7.30;;;6.60;;
27618;SDS011;15039;50.830;4.730;2023-05-31T03:45:09;8.80;;;7.45;;
27618;SDS011;15039;50.830;4.730;2023-05-31T03:47:34;9.25;;;7.05;;
27618;SDS011;15039;50.830;4.730;2023-05-31T03:50:02;7.80;;;7.07;;
27618;SDS011;15039;50.830;4.730;2023-05-31T03:52:31;10.00;;;7.80;;
27618;SDS011;15039;50.830;4.730;2023-05-31T03:54:56;10.05;;;7.25;;
27618;SDS011;15039;50.830;4.730;2023-05-31T03:57:22;8.25;;;7.05;;
27618;SDS011;15039;50.830;4.730;2023-05-31T03:59:48;8.52;;;7.13;;
27618;SDS011;15039;50.830;4.730;2023-05-31T04:02:14;9.05;;;7.72;;
27618;SDS011;15039;50.830;4.730;2023-05-31T04:04:39;10.82;;;7.35;;
27618;SDS011;15039;50.830;4.730;2023-05-31T04:07:05;8.80;;;7.82;;
27618;SDS011;15039;50.830;4.730;2023-05-31T04:09:31;8.23;;;7.43;;
27618;SDS011;15039;50.830;4.730;2023-05-31T04:11:56;8.60;;;7.70;;
27618;SDS011;15039;50.830;4.730;2023-05-31T04:14:22;9.63;;;7.97;;
27618;SDS011;15039;50.830;4.730;2023-05-31T04:16:47;10.48;;;7.38;;
27618;SDS011;15039;50.830;4.730;2023-05-31T04:19:13;10.25;;;8.00;;
27618;SDS011;15039;50.830;4.730;2023-05-31T04:21:39;10.00;;;8.15;;
27618;SDS011;15039;50.830;4.730;2023-05-31T04:24:04;11.07;;;8.48;;
27618;SDS011;15039;50.830;4.730;2023-05-31T04:26:30;8.90;;;7.95;;
27618;SDS011;15039;50.830;4.730;2023-05-31T04:28:58;8.65;;;7.70;;
27618;SDS011;15039;50.830;4.730;2023-05-31T04:31:24;8.35;;;7.55;;
27618;SDS011;15039;50.830;4.730;2023-05-31T04:33:50;9.70;;;8.70;;
27618;SDS011;15039;50.830;4.730;2023-05-31T04:36:18;8.98;;;8.02;;
27618;SDS011;15039;50.830;4.730;2023-05-31T04:38:45;10.80;;;8.13;;
27618;SDS011;15039;50.830;4.730;2023-05-31T04:41:12;9.52;;;8.00;;
27618;SDS011;15039;50.830;4.730;2023-05-31T04:43:39;8.85;;;7.95;;
27618;SDS011;15039;50.830;4.730;2023-05-31T04:46:05;9.45;;;8.20;;
27618;SDS011;15039;50.830;4.730;2023-05-31T04:48:34;10.77;;;9.45;;
27618;SDS011;15039;50.830;4.730;2023-05-31T04:51:00;11.88;;;9.35;;
27618;SDS011;15039;50.830;4.730;2023-05-31T04:53:26;11.05;;;9.38;;
27618;SDS011;15039;50.830;4.730;2023-05-31T04:55:51;10.82;;;8.65;;
27618;SDS011;15039;50.830;4.730;2023-05-31T04:58:17;9.50;;;8.60;;
27618;SDS011;15039;50.830;4.730;2023-05-31T05:00:44;9.70;;;8.80;;
27618;SDS011;15039;50.830;4.730;2023-05-31T05:03:10;9.48;;;8.25;;
27618;SDS011;15039;50.830;4.730;2023-05-31T05:05:37;10.65;;;8.65;;
27618;SDS011;15039;50.830;4.730;2023-05-31T05:08:03;12.15;;;9.15;;
27618;SDS011;15039;50.830;4.730;2023-05-31T05:10:28;9.30;;;8.40;;
27618;SDS011;15039;50.830;4.730;2023-05-31T05:12:54;10.38;;;8.70;;
27618;SDS011;15039;50.830;4.730;2023-05-31T05:15:20;10.25;;;8.63;;
27618;SDS011;15039;50.830;4.730;2023-05-31T05:17:45;9.82;;;8.50;;
27618;SDS011;15039;50.830;4.730;2023-05-31T05:20:11;9.52;;;8.32;;
27618;SDS011;15039;50.830;4.730;2023-05-31T05:22:37;11.18;;;8.68;;
27618;SDS011;15039;50.830;4.730;2023-05-31T05:25:03;11.77;;;8.60;;
27618;SDS011;15039;50.830;4.730;2023-05-31T05:27:29;10.18;;;9.18;;
27618;SDS011;15039;50.830;4.730;2023-05-31T05:29:55;10.05;;;8.50;;
27618;SDS011;15039;50.830;4.730;2023-05-31T05:32:21;11.75;;;9.18;;
27618;SDS011;15039;50.830;4.730;2023-05-31T05:34:46;9.95;;;8.43;;
27618;SDS011;15039;50.830;4.730;2023-05-31T05:37:12;12.57;;;9.02;;
27618;SDS011;15039;50.830;4.730;2023-05-31T05:39:37;9.40;;;8.43;;
27618;SDS011;15039;50.830;4.730;2023-05-31T05:42:03;11.13;;;8.85;;
27618;SDS011;15039;50.830;4.730;2023-05-31T05:44:29;9.48;;;8.55;;
27618;SDS011;15039;50.830;4.730;2023-05-31T05:46:55;11.20;;;9.50;;
27618;SDS011;15039;50.830;4.730;2023-05-31T05:49:21;10.20;;;8.98;;
27618;SDS011;15039;50.830;4.730;2023-05-31T05:51:47;9.35;;;8.15;;
27618;SDS011;15039;50.830;4.730;2023-05-31T05:54:12;8.75;;;7.93;;
27618;SDS011;15039;50.830;4.730;2023-05-31T05:56:38;10.20;;;8.73;;
27618;SDS011;15039;50.830;4.730;2023-05-31T05:59:04;9.98;;;8.25;;
27618;SDS011;15039;50.830;4.730;2023-05-31T06:01:30;8.55;;;7.63;;
27618;SDS011;15039;50.830;4.730;2023-05-31T06:03:56;9.20;;;7.22;;
27618;SDS011;15039;50.830;4.730;2023-05-31T06:06:21;7.32;;;6.45;;
27618;SDS011;15039;50.830;4.730;2023-05-31T06:08:47;6.18;;;5.57;;
27618;SDS011;15039;50.830;4.730;2023-05-31T06:11:12;8.43;;;5.43;;
27618;SDS011;15039;50.830;4.730;2023-05-31T06:13:42;6.30;;;5.10;;
27618;SDS011;15039;50.830;4.730;2023-05-31T06:16:08;5.88;;;5.22;;
27618;SDS011;15039;50.830;4.730;2023-05-31T06:18:34;6.88;;;5.47;;
27618;SDS011;15039;50.830;4.730;2023-05-31T06:20:59;8.15;;;5.22;;
27618;SDS011;15039;50.830;4.730;2023-05-31T06:23:25;7.35;;;5.72;;
27618;SDS011;15039;50.830;4.730;2023-05-31T06:25:51;5.70;;;5.10;;
27618;SDS011;15039;50.830;4.730;2023-05-31T06:28:17;6.00;;;5.13;;
27618;SDS011;15039;50.830;4.730;2023-05-31T06:30:43;8.35;;;6.35;;
27618;SDS011;15039;50.830;4.730;2023-05-31T06:33:09;8.10;;;5.43;;
27618;SDS011;15039;50.830;4.730;2023-05-31T06:35:35;7.38;;;5.25;;
27618;SDS011;15039;50.830;4.730;2023-05-31T06:38:00;6.65;;;5.10;;
27618;SDS011;15039;50.830;4.730;2023-05-31T06:40:28;5.93;;;5.43;;
27618;SDS011;15039;50.830;4.730;2023-05-31T06:42:54;8.02;;;6.00;;
27618;SDS011;15039;50.830;4.730;2023-05-31T06:45:20;9.18;;;6.75;;
27618;SDS011;15039;50.830;4.730;2023-05-31T06:47:45;8.68;;;6.47;;
27618;SDS011;15039;50.830;4.730;2023-05-31T06:50:11;8.20;;;6.40;;
27618;SDS011;15039;50.830;4.730;2023-05-31T06:52:38;7.72;;;6.47;;
27618;SDS011;15039;50.830;4.730;2023-05-31T06:55:05;8.15;;;6.32;;
27618;SDS011;15039;50.830;4.730;2023-05-31T06:57:31;7.20;;;6.47;;
27618;SDS011;15039;50.830;4.730;2023-05-31T06:59:56;7.82;;;7.03;;
27618;SDS011;15039;50.830;4.730;2023-05-31T07:02:22;8.93;;;6.53;;
27618;SDS011;15039;50.830;4.730;2023-05-31T07:04:48;8.93;;;6.57;;
27618;SDS011;15039;50.830;4.730;2023-05-31T07:07:15;7.57;;;6.70;;
27618;SDS011;15039;50.830;4.730;2023-05-31T07:09:40;8.57;;;6.70;;
27618;SDS011;15039;50.830;4.730;2023-05-31T07:12:07;11.00;;;6.55;;
27618;SDS011;15039;50.830;4.730;2023-05-31T07:14:32;7.03;;;6.10;;
27618;SDS011;15039;50.830;4.730;2023-05-31T07:16:58;8.60;;;6.43;;
27618;SDS011;15039;50.830;4.730;2023-05-31T07:19:24;10.57;;;6.00;;
27618;SDS011;15039;50.830;4.730;2023-05-31T07:21:53;9.07;;;6.50;;
27618;SDS011;15039;50.830;4.730;2023-05-31T07:24:19;7.40;;;5.63;;
27618;SDS011;15039;50.830;4.730;2023-05-31T07:26:44;8.63;;;6.18;;
27618;SDS011;15039;50.830;4.730;2023-05-31T07:29:10;10.25;;;5.85;;
27618;SDS011;15039;50.830;4.730;2023-05-31T07:31:37;10.90;;;6.40;;
27618;SDS011;15039;50.830;4.730;2023-05-31T07:34:02;9.32;;;5.93;;
27618;SDS011;15039;50.830;4.730;2023-05-31T07:36:28;11.80;;;5.82;;
27618;SDS011;15039;50.830;4.730;2023-05-31T07:38:54;7.28;;;5.40;;
27618;SDS011;15039;50.830;4.730;2023-05-31T07:41:19;6.18;;;5.07;;
27618;SDS011;15039;50.830;4.730;2023-05-31T07:43:45;9.25;;;5.35;;
27618;SDS011;15039;50.830;4.730;2023-05-31T07:46:11;8.13;;;5.75;;
27618;SDS011;15039;50.830;4.730;2023-05-31T07:48:37;7.03;;;4.82;;
27618;SDS011;15039;50.830;4.730;2023-05-31T07:51:03;10.07;;;5.05;;
27618;SDS011;15039;50.830;4.730;2023-05-31T07:53:29;5.93;;;4.57;;
27618;SDS011;15039;50.830;4.730;2023-05-31T07:55:55;7.28;;;4.97;;
27618;SDS011;15039;50.830;4.730;2023-05-31T07:58:20;7.75;;;4.75;;
27618;SDS011;15039;50.830;4.730;2023-05-31T08:00:46;10.32;;;5.15;;
27618;SDS011;15039;50.830;4.730;2023-05-31T08:03:12;6.82;;;4.97;;
27618;SDS011;15039;50.830;4.730;2023-05-31T08:05:39;7.35;;;5.20;;
27618;SDS011;15039;50.830;4.730;2023-05-31T08:08:05;6.22;;;4.63;;
27618;SDS011;15039;50.830;4.730;2023-05-31T08:10:31;5.93;;;4.43;;
27618;SDS011;15039;50.830;4.730;2023-05-31T08:12:57;8.88;;;4.38;;
27618;SDS011;15039;50.830;4.730;2023-05-31T08:15:23;7.72;;;4.45;;
27618;SDS011;15039;50.830;4.730;2023-05-31T08:17:48;9.73;;;3.92;;
27618;SDS011;15039;50.830;4.730;2023-05-31T08:20:15;7.53;;;4.20;;
27618;SDS011;15039;50.830;4.730;2023-05-31T08:22:42;6.05;;;4.50;;
27618;SDS011;15039;50.830;4.730;2023-05-31T08:25:09;5.05;;;4.22;;
27618;SDS011;15039;50.830;4.730;2023-05-31T08:27:38;8.48;;;4.60;;
27618;SDS011;15039;50.830;4.730;2023-05-31T08:30:05;7.72;;;4.53;;
27618;SDS011;15039;50.830;4.730;2023-05-31T08:32:34;8.65;;;4.28;;
27618;SDS011;15039;50.830;4.730;2023-05-31T08:35:00;8.93;;;4.20;;
27618;SDS011;15039;50.830;4.730;2023-05-31T08:37:25;7.43;;;4.22;;
27618;SDS011;15039;50.830;4.730;2023-05-31T08:39:51;5.03;;;3.72;;
27618;SDS011;15039;50.830;4.730;2023-05-31T08:42:28;5.82;;;4.28;;
27618;SDS011;15039;50.830;4.730;2023-05-31T08:45:17;7.13;;;4.10;;
27618;SDS011;15039;50.830;4.730;2023-05-31T08:47:43;7.53;;;4.80;;
27618;SDS011;15039;50.830;4.730;2023-05-31T08:50:31;5.72;;;3.85;;
27618;SDS011;15039;50.830;4.730;2023-05-31T08:52:57;5.75;;;3.33;;
27618;SDS011;15039;50.830;4.730;2023-05-31T08:55:24;6.97;;;3.58;;
27618;SDS011;15039;50.830;4.730;2023-05-31T08:57:50;6.80;;;3.88;;
27618;SDS011;15039;50.830;4.730;2023-05-31T09:00:17;5.60;;;4.05;;
27618;SDS011;15039;50.830;4.730;2023-05-31T09:02:44;6.05;;;3.95;;
27618;SDS011;15039;50.830;4.730;2023-05-31T09:05:11;10.80;;;3.97;;
27618;SDS011;15039;50.830;4.730;2023-05-31T09:07:39;5.40;;;3.90;;
27618;SDS011;15039;50.830;4.730;2023-05-31T09:10:05;5.38;;;4.40;;
27618;SDS011;15039;50.830;4.730;2023-05-31T09:12:33;7.03;;;3.85;;
27618;SDS011;15039;50.830;4.730;2023-05-31T09:14:59;9.90;;;3.72;;
27618;SDS011;15039;50.830;4.730;2023-05-31T09:17:25;7.65;;;3.70;;
27618;SDS011;15039;50.830;4.730;2023-05-31T09:19:52;9.15;;;3.90;;
27618;SDS011;15039;50.830;4.730;2023-05-31T09:22:21;6.63;;;4.13;;
27618;SDS011;15039;50.830;4.730;2023-05-31T09:24:57;10.13;;;3.78;;
27618;SDS011;15039;50.830;4.730;2023-05-31T09:27:25;10.05;;;3.75;;
27618;SDS011;15039;50.830;4.730;2023-05-31T09:29:58;6.03;;;3.22;;
27618;SDS011;15039;50.830;4.730;2023-05-31T09:32:28;9.60;;;3.55;;
27618;SDS011;15039;50.830;4.730;2023-05-31T09:34:54;8.73;;;3.70;;
27618;SDS011;15039;50.830;4.730;2023-05-31T09:37:47;8.25;;;3.53;;
27618;SDS011;15039;50.830;4.730;2023-05-31T09:40:14;4.55;;;3.15;;
27618;SDS011;15039;50.830;4.730;2023-05-31T09:42:47;5.70;;;3.50;;
27618;SDS011;15039;50.830;4.730;2023-05-31T09:45:14;5.15;;;3.47;;
27618;SDS011;15039;50.830;4.730;2023-05-31T09:47:40;8.10;;;3.33;;
27618;SDS011;15039;50.830;4.730;2023-05-31T09:50:19;4.85;;;2.97;;
27618;SDS011;15039;50.830;4.730;2023-05-31T09:52:47;4.68;;;2.97;;
27618;SDS011;15039;50.830;4.730;2023-05-31T09:55:14;5.20;;;2.90;;
27618;SDS011;15039;50.830;4.730;2023-05-31T09:57:41;3.38;;;3.03;;
27618;SDS011;15039;50.830;4.730;2023-05-31T10:00:12;6.57;;;3.03;;
27618;SDS011;15039;50.830;4.730;2023-05-31T10:02:52;7.82;;;3.17;;
27618;SDS011;15039;50.830;4.730;2023-05-31T10:05:19;4.93;;;3.50;;
27618;SDS011;15039;50.830;4.730;2023-05-31T10:07:47;6.45;;;3.13;;
27618;SDS011;15039;50.830;4.730;2023-05-31T10:10:14;7.25;;;3.20;;
27618;SDS011;15039;50.830;4.730;2023-05-31T10:12:50;5.97;;;2.70;;
27618;SDS011;15039;50.830;4.730;2023-05-31T10:15:25;5.38;;;2.40;;
27618;SDS011;15039;50.830;4.730;2023-05-31T10:20:28;3.47;;;2.67;;
27618;SDS011;15039;50.830;4.730;2023-05-31T10:22:59;4.30;;;2.10;;
27618;SDS011;15039;50.830;4.730;2023-05-31T10:25:40;6.85;;;2.75;;
27618;SDS011;15039;50.830;4.730;2023-05-31T10:28:11;3.70;;;2.15;;
27618;SDS011;15039;50.830;4.730;2023-05-31T10:30:42;6.43;;;2.30;;
27618;SDS011;15039;50.830;4.730;2023-05-31T10:33:13;6.22;;;2.47;;
27618;SDS011;15039;50.830;4.730;2023-05-31T10:35:40;2.58;;;1.77;;
27618;SDS011;15039;50.830;4.730;2023-05-31T10:38:06;5.82;;;2.47;;
27618;SDS011;15039;50.830;4.730;2023-05-31T10:43:43;4.45;;;2.63;;
27618;SDS011;15039;50.830;4.730;2023-05-31T10:46:20;4.25;;;2.08;;
27618;SDS011;15039;50.830;4.730;2023-05-31T10:48:51;3.40;;;1.80;;
27618;SDS011;15039;50.830;4.730;2023-05-31T10:51:37;2.55;;;1.45;;
27618;SDS011;15039;50.830;4.730;2023-05-31T10:54:07;6.25;;;1.80;;
27618;SDS011;15039;50.830;4.730;2023-05-31T10:56:36;7.68;;;2.30;;
27618;SDS011;15039;50.830;4.730;2023-05-31T10:59:03;4.25;;;2.13;;
27618;SDS011;15039;50.830;4.730;2023-05-31T11:01:29;5.47;;;2.00;;
27618;SDS011;15039;50.830;4.730;2023-05-31T11:03:55;5.93;;;2.00;;
27618;SDS011;15039;50.830;4.730;2023-05-31T11:06:28;3.47;;;1.83;;
27618;SDS011;15039;50.830;4.730;2023-05-31T11:14:05;3.65;;;1.95;;
27618;SDS011;15039;50.830;4.730;2023-05-31T11:17:20;5.00;;;2.20;;
27618;SDS011;15039;50.830;4.730;2023-05-31T11:19:34;6.90;;;2.28;;
27618;SDS011;15039;50.830;4.730;2023-05-31T11:27:22;3.67;;;1.73;;
27618;SDS011;15039;50.830;4.730;2023-05-31T11:32:20;5.35;;;2.20;;
27618;SDS011;15039;50.830;4.730;2023-05-31T11:37:21;5.30;;;2.35;;
27618;SDS011;15039;50.830;4.730;2023-05-31T11:40:03;4.75;;;1.95;;
27618;SDS011;15039;50.830;4.730;2023-05-31T11:42:31;7.05;;;2.05;;
27618;SDS011;15039;50.830;4.730;2023-05-31T11:45:01;4.22;;;1.80;;
27618;SDS011;15039;50.830;4.730;2023-05-31T11:47:32;7.47;;;2.17;;
27618;SDS011;15039;50.830;4.730;2023-05-31T11:50:10;7.65;;;2.22;;
27618;SDS011;15039;50.830;4.730;2023-05-31T11:52:38;5.40;;;1.80;;
27618;SDS011;15039;50.830;4.730;2023-05-31T11:55:05;5.38;;;1.73;;
27618;SDS011;15039;50.830;4.730;2023-05-31T11:57:39;5.20;;;2.10;;
27618;SDS011;15039;50.830;4.730;2023-05-31T12:00:16;5.18;;;2.20;;
27618;SDS011;15039;50.830;4.730;2023-05-31T12:02:47;3.28;;;1.75;;
27618;SDS011;15039;50.830;4.730;2023-05-31T12:05:21;2.97;;;2.03;;
27618;SDS011;15039;50.830;4.730;2023-05-31T12:07:47;6.50;;;2.00;;
27618;SDS011;15039;50.830;4.730;2023-05-31T12:10:17;4.20;;;1.70;;
27618;SDS011;15039;50.830;4.730;2023-05-31T12:12:42;8.68;;;2.22;;
27618;SDS011;15039;50.830;4.730;2023-05-31T12:15:11;7.45;;;1.63;;
27618;SDS011;15039;50.830;4.730;2023-05-31T12:17:37;11.93;;;2.50;;
27618;SDS011;15039;50.830;4.730;2023-05-31T12:20:03;9.20;;;2.40;;
27618;SDS011;15039;50.830;4.730;2023-05-31T12:22:33;7.90;;;2.10;;
27618;SDS011;15039;50.830;4.730;2023-05-31T12:24:59;7.90;;;1.83;;
27618;SDS011;15039;50.830;4.730;2023-05-31T12:27:26;5.43;;;1.88;;
27618;SDS011;15039;50.830;4.730;2023-05-31T12:29:55;3.90;;;1.90;;
27618;SDS011;15039;50.830;4.730;2023-05-31T12:32:21;4.07;;;1.85;;
27618;SDS011;15039;50.830;4.730;2023-05-31T12:34:52;2.15;;;1.50;;
27618;SDS011;15039;50.830;4.730;2023-05-31T12:37:18;6.82;;;2.33;;
27618;SDS011;15039;50.830;4.730;2023-05-31T12:39:45;2.67;;;1.50;;
27618;SDS011;15039;50.830;4.730;2023-05-31T12:42:10;3.97;;;2.28;;
27618;SDS011;15039;50.830;4.730;2023-05-31T12:44:36;5.35;;;2.10;;
27618;SDS011;15039;50.830;4.730;2023-05-31T12:47:06;3.58;;;1.80;;
27618;SDS011;15039;50.830;4.730;2023-05-31T12:49:33;4.63;;;2.20;;
27618;SDS011;15039;50.830;4.730;2023-05-31T12:52:06;6.03;;;2.03;;
27618;SDS011;15039;50.830;4.730;2023-05-31T12:54:33;7.82;;;1.80;;
27618;SDS011;15039;50.830;4.730;2023-05-31T12:57:07;4.85;;;2.10;;
27618;SDS011;15039;50.830;4.730;2023-05-31T12:59:34;3.22;;;1.77;;
27618;SDS011;15039;50.830;4.730;2023-05-31T13:02:01;3.53;;;1.73;;
27618;SDS011;15039;50.830;4.730;2023-05-31T13:04:28;5.93;;;1.85;;
27618;SDS011;15039;50.830;4.730;2023-05-31T13:06:54;6.35;;;1.90;;
27618;SDS011;15039;50.830;4.730;2023-05-31T13:09:23;3.40;;;1.70;;
27618;SDS011;15039;50.830;4.730;2023-05-31T13:11:49;6.78;;;2.42;;
27618;SDS011;15039;50.830;4.730;2023-05-31T13:14:17;3.90;;;1.80;;
27618;SDS011;15039;50.830;4.730;2023-05-31T13:16:45;3.10;;;1.42;;
27618;SDS011;15039;50.830;4.730;2023-05-31T13:19:11;3.80;;;1.80;;
27618;SDS011;15039;50.830;4.730;2023-05-31T13:21:38;6.20;;;2.15;;
27618;SDS011;15039;50.830;4.730;2023-05-31T13:24:04;6.68;;;2.13;;
27618;SDS011;15039;50.830;4.730;2023-05-31T13:26:31;3.85;;;1.67;;
27618;SDS011;15039;50.830;4.730;2023-05-31T13:28:58;4.85;;;2.00;;
27618;SDS011;15039;50.830;4.730;2023-05-31T13:31:25;9.50;;;1.92;;
27618;SDS011;15039;50.830;4.730;2023-05-31T13:33:51;5.15;;;1.77;;
27618;SDS011;15039;50.830;4.730;2023-05-31T13:36:17;4.25;;;1.70;;
27618;SDS011;15039;50.830;4.730;2023-05-31T13:38:44;5.30;;;1.80;;
27618;SDS011;15039;50.830;4.730;2023-05-31T13:41:11;4.82;;;1.98;;
27618;SDS011;15039;50.830;4.730;2023-05-31T13:43:37;7.95;;;1.73;;
27618;SDS011;15039;50.830;4.730;2023-05-31T13:46:03;3.90;;;1.70;;
27618;SDS011;15039;50.830;4.730;2023-05-31T13:48:30;4.40;;;1.77;;
27618;SDS011;15039;50.830;4.730;2023-05-31T13:50:55;4.95;;;1.63;;
27618;SDS011;15039;50.830;4.730;2023-05-31T13:53:21;7.10;;;2.00;;
27618;SDS011;15039;50.830;4.730;2023-05-31T13:55:47;6.22;;;2.13;;
27618;SDS011;15039;50.830;4.730;2023-05-31T13:58:13;5.25;;;1.80;;
27618;SDS011;15039;50.830;4.730;2023-05-31T14:00:39;5.95;;;1.85;;
27618;SDS011;15039;50.830;4.730;2023-05-31T14:03:05;4.80;;;1.60;;
27618;SDS011;15039;50.830;4.730;2023-05-31T14:05:31;4.53;;;1.98;;
27618;SDS011;15039;50.830;4.730;2023-05-31T14:07:57;4.07;;;1.83;;
27618;SDS011;15039;50.830;4.730;2023-05-31T14:10:23;4.72;;;1.65;;
27618;SDS011;15039;50.830;4.730;2023-05-31T14:12:49;3.75;;;1.85;;
27618;SDS011;15039;50.830;4.730;2023-05-31T14:15:15;6.50;;;2.00;;
27618;SDS011;15039;50.830;4.730;2023-05-31T14:17:41;4.25;;;1.60;;
27618;SDS011;15039;50.830;4.730;2023-05-31T14:20:07;3.90;;;1.65;;
27618;SDS011;15039;50.830;4.730;2023-05-31T14:22:33;4.30;;;1.42;;
27618;SDS011;15039;50.830;4.730;2023-05-31T14:24:59;6.88;;;1.90;;
27618;SDS011;15039;50.830;4.730;2023-05-31T14:27:24;2.42;;;1.65;;
27618;SDS011;15039;50.830;4.730;2023-05-31T14:29:50;3.22;;;1.58;;
27618;SDS011;15039;50.830;4.730;2023-05-31T14:32:16;12.63;;;1.67;;
27618;SDS011;15039;50.830;4.730;2023-05-31T14:34:45;7.07;;;1.92;;
27618;SDS011;15039;50.830;4.730;2023-05-31T14:39:40;4.28;;;1.88;;
27618;SDS011;15039;50.830;4.730;2023-05-31T14:42:06;3.03;;;1.63;;
27618;SDS011;15039;50.830;4.730;2023-05-31T14:44:32;5.05;;;2.10;;
27618;SDS011;15039;50.830;4.730;2023-05-31T14:47:00;6.45;;;1.60;;
27618;SDS011;15039;50.830;4.730;2023-05-31T14:49:26;2.60;;;1.52;;
27618;SDS011;15039;50.830;4.730;2023-05-31T14:51:51;5.53;;;1.48;;
27618;SDS011;15039;50.830;4.730;2023-05-31T14:54:17;4.15;;;1.77;;
27618;SDS011;15039;50.830;4.730;2023-05-31T14:56:43;3.33;;;1.67;;
27618;SDS011;15039;50.830;4.730;2023-05-31T14:59:09;5.75;;;1.60;;
27618;SDS011;15039;50.830;4.730;2023-05-31T15:01:35;5.32;;;2.15;;
27618;SDS011;15039;50.830;4.730;2023-05-31T15:04:07;6.38;;;1.77;;
27618;SDS011;15039;50.830;4.730;2023-05-31T15:06:33;5.18;;;1.73;;
27618;SDS011;15039;50.830;4.730;2023-05-31T15:09:00;3.67;;;1.67;;
27618;SDS011;15039;50.830;4.730;2023-05-31T15:11:27;8.02;;;1.55;;
27618;SDS011;15039;50.830;4.730;2023-05-31T15:13:52;5.18;;;1.63;;
27618;SDS011;15039;50.830;4.730;2023-05-31T15:16:18;9.82;;;2.08;;
27618;SDS011;15039;50.830;4.730;2023-05-31T15:18:44;4.00;;;1.65;;
27618;SDS011;15039;50.830;4.730;2023-05-31T15:21:09;4.43;;;1.70;;